createdAt,value
2017-02-26T13:55:22.130Z,992
2017-02-26T13:56:31.018Z,896
2017-02-26T13:57:39.900Z,740
2017-02-26T13:58:48.780Z,736
2017-02-26T13:59:57.678Z,764
2017-02-26T14:01:06.657Z,720
2017-02-26T14:02:15.588Z,840
2017-02-26T14:03:24.504Z,876
2017-02-26T14:04:33.388Z,956
2017-02-26T14:05:42.293Z,868
2017-02-26T14:06:51.173Z,904
2017-02-26T14:08:00.053Z,900
2017-02-26T14:09:08.974Z,1164
2017-02-26T14:10:17.870Z,1212
2017-02-26T14:11:26.757Z,1156
2017-02-26T14:12:35.650Z,1008
2017-02-26T14:13:44.557Z,988
2017-02-26T14:14:53.463Z,960
2017-02-26T14:16:02.376Z,964
2017-02-26T14:17:11.263Z,1028
2017-02-26T14:18:20.159Z,796
2017-02-26T14:19:29.059Z,996
2017-02-26T14:20:37.962Z,1040
2017-02-26T14:21:46.852Z,860
2017-02-26T14:22:55.757Z,748
2017-02-26T14:24:04.636Z,780
2017-02-26T14:25:13.523Z,840
2017-02-26T14:26:22.426Z,884
2017-02-26T14:27:31.331Z,824
2017-02-26T14:28:40.244Z,804
2017-02-26T14:29:49.155Z,740
2017-02-26T14:30:58.054Z,684
2017-02-26T14:32:06.947Z,620
2017-02-26T14:33:15.850Z,668
2017-02-26T14:34:24.754Z,616
2017-02-26T14:35:33.649Z,664
2017-02-26T14:36:42.568Z,700
2017-02-26T14:37:51.480Z,632
2017-02-26T14:39:00.764Z,528
2017-02-26T14:40:09.712Z,620
2017-02-26T14:41:18.785Z,788
2017-02-26T14:42:29.267Z,776
2017-02-26T14:43:38.178Z,636
2017-02-26T14:44:47.060Z,640
2017-02-26T14:45:55.959Z,572
2017-02-26T14:47:04.843Z,672
2017-02-26T14:48:13.889Z,816
2017-02-26T14:49:22.812Z,852
2017-02-26T14:50:31.702Z,792
2017-02-26T14:51:41.176Z,688
2017-02-26T14:52:50.955Z,552
2017-02-26T14:54:00.307Z,588
2017-02-26T14:55:11.839Z,584
2017-02-26T14:56:20.941Z,620
2017-02-26T14:57:29.831Z,724
2017-02-26T14:58:38.718Z,656
2017-02-26T14:59:47.624Z,732
2017-02-26T15:00:56.513Z,732
2017-02-26T15:02:05.439Z,584
2017-02-26T15:03:14.350Z,600
2017-02-26T15:04:23.280Z,708
2017-02-26T15:05:32.177Z,832
2017-02-26T15:06:41.062Z,608
2017-02-26T15:07:49.970Z,616
2017-02-26T15:08:58.886Z,640
2017-02-26T15:10:07.768Z,556
2017-02-26T15:11:16.661Z,664
2017-02-26T15:12:25.552Z,836
2017-02-26T15:13:34.434Z,624
2017-02-26T15:14:43.334Z,624
2017-02-26T15:15:52.233Z,724
2017-02-26T15:17:01.125Z,456
2017-02-26T15:18:10.020Z,416
2017-02-26T15:19:18.928Z,336
2017-02-26T15:20:27.865Z,304
2017-02-26T15:21:36.798Z,284
2017-02-26T15:22:45.716Z,288
2017-02-26T15:23:55.026Z,300
2017-02-26T15:25:03.911Z,288
2017-02-26T15:26:12.816Z,324
2017-02-26T15:27:21.730Z,440
2017-02-26T15:28:30.612Z,448
2017-02-26T15:29:39.492Z,424
2017-02-26T15:30:48.374Z,452
2017-02-26T15:31:57.252Z,488
2017-02-26T15:33:06.147Z,504
2017-02-26T15:34:15.043Z,516
2017-02-26T15:35:23.961Z,540
2017-02-26T15:36:32.864Z,580
2017-02-26T15:37:41.869Z,548
2017-02-26T15:38:50.908Z,496
2017-02-26T15:39:59.807Z,508
2017-02-26T15:41:08.722Z,468
2017-02-26T15:42:17.634Z,396
2017-02-26T15:43:26.519Z,292
2017-02-26T15:44:35.421Z,220
2017-02-26T15:45:44.325Z,228
2017-02-26T15:46:53.213Z,260
2017-02-26T15:48:02.146Z,228
2017-02-26T15:49:11.090Z,184
2017-02-26T15:50:20.661Z,168
2017-02-26T15:51:30.006Z,148
2017-02-26T15:52:38.963Z,144
2017-02-26T15:53:47.898Z,148
2017-02-26T15:54:57.014Z,144
2017-02-26T15:56:06.076Z,140
2017-02-26T15:57:15.189Z,136
2017-02-26T15:58:24.076Z,120
2017-02-26T15:59:33.664Z,116
2017-02-26T16:00:42.931Z,108
2017-02-26T16:01:51.975Z,100
2017-02-26T16:03:01.463Z,96
2017-02-26T16:04:11.931Z,80
2017-02-26T16:05:20.989Z,76
2017-02-26T16:06:30.091Z,68
2017-02-26T16:07:39.124Z,68
2017-02-26T16:08:48.391Z,60
2017-02-26T16:09:57.339Z,60
2017-02-26T16:11:06.397Z,60
2017-02-26T16:12:15.790Z,56
2017-02-26T16:13:25.973Z,52
2017-02-26T16:14:34.911Z,48
2017-02-26T16:15:43.812Z,48
2017-02-26T16:16:52.697Z,44
2017-02-26T16:18:01.576Z,40
2017-02-26T16:19:10.477Z,36
2017-02-26T16:20:19.397Z,36
2017-02-26T16:21:28.293Z,36
2017-02-26T16:22:37.179Z,36
2017-02-26T16:23:46.099Z,32
2017-02-26T16:24:54.992Z,32
2017-02-26T16:26:03.891Z,32
2017-02-26T16:27:12.800Z,32
2017-02-26T16:28:21.694Z,32
2017-02-26T16:29:30.607Z,32
2017-02-26T16:30:39.525Z,28
2017-02-26T16:31:48.467Z,32
2017-02-26T16:32:57.395Z,28
2017-02-26T16:34:06.284Z,28
2017-02-26T16:35:15.164Z,24
2017-02-26T16:36:24.049Z,24
2017-02-26T16:37:32.965Z,20
2017-02-26T16:38:41.859Z,16
2017-02-26T16:39:50.749Z,16
2017-02-26T16:40:59.641Z,16
2017-02-26T16:42:08.532Z,12
2017-02-26T16:43:17.413Z,12
2017-02-26T16:44:26.310Z,12
2017-02-26T16:45:35.213Z,8
2017-02-26T16:46:44.098Z,8
2017-02-26T16:47:52.996Z,8
2017-02-26T16:49:01.882Z,4
2017-02-26T16:50:10.761Z,4
2017-02-26T16:51:19.672Z,4
2017-02-26T16:52:28.611Z,4
2017-02-26T16:53:37.502Z,4
2017-02-26T16:54:46.403Z,0
2017-02-26T16:55:55.685Z,0
2017-02-26T16:57:04.589Z,4
2017-02-26T16:58:13.481Z,4
2017-02-26T16:59:23.176Z,4
2017-02-26T17:00:32.093Z,4
2017-02-26T17:01:41.008Z,0
2017-02-26T17:02:49.903Z,0
2017-02-26T17:03:58.805Z,0
2017-02-26T17:05:07.735Z,0
2017-02-26T17:06:16.624Z,0
2017-02-26T17:07:25.541Z,0
2017-02-26T17:08:34.430Z,0
2017-02-26T17:09:43.312Z,0
2017-02-26T17:10:52.192Z,0
2017-02-26T17:12:01.077Z,0
2017-02-26T17:13:10.011Z,0
2017-02-26T17:14:18.894Z,0
2017-02-26T17:15:27.793Z,0
2017-02-26T17:16:36.689Z,0
2017-02-26T17:17:45.575Z,0
2017-02-26T17:18:54.458Z,0
2017-02-26T17:20:03.356Z,0
2017-02-26T17:21:12.271Z,0
2017-02-26T17:22:21.174Z,0
2017-02-26T17:23:30.106Z,0
2017-02-26T17:24:39.017Z,0
2017-02-26T17:25:47.917Z,0
2017-02-26T17:26:56.807Z,0
2017-02-26T17:28:05.694Z,0
2017-02-26T17:29:14.586Z,0
2017-02-26T17:30:23.476Z,0
2017-02-26T17:31:32.360Z,0
2017-02-26T17:32:41.266Z,0
2017-02-26T17:33:50.167Z,0
2017-02-26T17:34:59.066Z,0
2017-02-26T17:36:07.968Z,0
2017-02-26T17:37:16.870Z,0
2017-02-26T17:38:25.764Z,0
2017-02-26T17:39:35.857Z,0
2017-02-26T17:40:44.735Z,0
2017-02-26T17:41:53.631Z,0
2017-02-26T17:43:02.555Z,0
2017-02-26T17:44:11.439Z,0
2017-02-26T17:45:20.333Z,0
2017-02-26T17:46:29.480Z,0
2017-02-26T17:47:38.601Z,0
2017-02-26T17:48:48.480Z,0
2017-02-26T17:49:57.362Z,0
2017-02-26T17:51:06.252Z,0
2017-02-26T17:52:15.153Z,0
2017-02-26T17:53:24.054Z,0
2017-02-26T17:54:32.966Z,0
2017-02-26T17:55:41.859Z,0
2017-02-26T17:56:50.747Z,0
2017-02-26T17:58:00.032Z,0
2017-02-26T17:59:08.966Z,0
2017-02-26T18:00:17.892Z,0
2017-02-26T18:01:26.780Z,0
2017-02-26T18:02:35.683Z,0
2017-02-26T18:03:44.574Z,0
2017-02-26T18:04:53.468Z,0
2017-02-26T18:06:02.355Z,0
2017-02-26T18:07:11.232Z,0
2017-02-26T18:08:20.162Z,0
2017-02-26T18:09:29.049Z,0
2017-02-26T18:10:37.953Z,0
2017-02-26T18:11:46.867Z,0
2017-02-26T18:12:55.786Z,0
2017-02-26T18:14:04.691Z,0
2017-02-26T18:15:13.994Z,0
2017-02-26T18:16:22.899Z,0
2017-02-26T18:17:31.788Z,0
2017-02-26T18:18:40.673Z,0
2017-02-26T18:19:49.560Z,0
2017-02-26T18:20:58.473Z,0
2017-02-26T18:22:07.443Z,0
2017-02-26T18:23:16.357Z,0
2017-02-26T18:24:25.262Z,0
2017-02-26T18:25:34.157Z,0
2017-02-26T18:26:43.060Z,0
2017-02-26T18:27:51.963Z,0
2017-02-26T18:29:00.853Z,0
2017-02-26T18:30:09.749Z,0
2017-02-26T18:31:18.665Z,0
2017-02-26T18:32:27.572Z,0
2017-02-26T18:33:36.473Z,0
2017-02-26T18:34:45.376Z,0
2017-02-26T18:35:54.284Z,0
2017-02-26T18:37:03.172Z,0
2017-02-26T18:38:12.079Z,0
2017-02-26T18:39:20.987Z,0
2017-02-26T18:40:29.880Z,0
2017-02-26T18:41:38.769Z,0
2017-02-26T18:42:48.057Z,0
2017-02-26T18:43:56.942Z,0
2017-02-26T18:45:06.251Z,0
2017-02-26T18:46:15.146Z,0
2017-02-26T18:47:24.468Z,0
2017-02-26T18:48:33.352Z,0
2017-02-26T18:49:42.245Z,0
2017-02-26T18:50:51.124Z,0
2017-02-26T18:52:00.030Z,0
2017-02-26T18:53:08.925Z,0
2017-02-26T18:54:17.835Z,0
2017-02-26T18:55:26.736Z,0
2017-02-26T18:56:35.622Z,0
2017-02-26T18:57:44.549Z,0
2017-02-26T18:58:53.470Z,0
2017-02-26T19:00:02.366Z,0
2017-02-26T19:01:11.270Z,0
2017-02-26T19:02:20.173Z,0
2017-02-26T19:03:29.074Z,0
2017-02-26T19:04:37.966Z,0
2017-02-26T19:05:46.855Z,0
2017-02-26T19:06:55.742Z,0
2017-02-26T19:08:04.645Z,0
2017-02-26T19:09:13.590Z,0
2017-02-26T19:10:22.487Z,0
2017-02-26T19:11:31.384Z,0
2017-02-26T19:12:40.298Z,0
2017-02-26T19:13:49.186Z,0
2017-02-26T19:14:58.105Z,0
2017-02-26T19:16:06.988Z,0
2017-02-26T19:17:15.885Z,0
2017-02-26T19:18:24.825Z,0
2017-02-26T19:19:33.739Z,0
2017-02-26T19:20:42.649Z,0
2017-02-26T19:21:51.537Z,0
2017-02-26T19:23:00.444Z,0
2017-02-26T19:24:09.365Z,0
2017-02-26T19:25:18.276Z,0
2017-02-26T19:26:27.629Z,0
2017-02-26T19:27:40.370Z,0
2017-02-26T19:28:51.201Z,0
2017-02-26T19:30:00.124Z,0
2017-02-26T19:31:09.665Z,0
2017-02-26T19:32:18.810Z,0
2017-02-26T19:33:28.542Z,0
2017-02-26T19:34:37.427Z,0
2017-02-26T19:35:46.434Z,0
2017-02-26T19:36:55.337Z,0
2017-02-26T19:38:04.564Z,0
2017-02-26T19:39:13.448Z,0
2017-02-26T19:40:22.467Z,0
2017-02-26T19:41:31.518Z,0
2017-02-26T19:42:40.407Z,0
2017-02-26T19:43:49.314Z,0
2017-02-26T19:44:58.248Z,0
2017-02-26T19:46:07.509Z,0
2017-02-26T19:47:16.413Z,0
2017-02-26T19:48:25.319Z,0
2017-02-26T19:49:34.271Z,0
2017-02-26T19:50:43.171Z,0
2017-02-26T19:51:52.363Z,0
2017-02-26T19:53:01.304Z,0
2017-02-26T19:54:10.371Z,0
2017-02-26T19:55:19.668Z,0
2017-02-26T19:56:29.012Z,0
2017-02-26T19:57:38.081Z,0
2017-02-26T19:58:47.134Z,0
2017-02-26T19:59:56.028Z,0
2017-02-26T20:01:04.945Z,0
2017-02-26T20:02:13.851Z,0
2017-02-26T20:03:22.750Z,0
2017-02-26T20:04:31.657Z,0
2017-02-26T20:05:40.574Z,0
2017-02-26T20:06:49.886Z,0
2017-02-26T20:07:58.789Z,0
2017-02-26T20:09:07.714Z,0
2017-02-26T20:10:16.599Z,0
2017-02-26T20:11:25.490Z,0
2017-02-26T20:12:34.410Z,0
2017-02-26T20:13:43.308Z,0
2017-02-26T20:14:52.209Z,0
2017-02-26T20:16:01.106Z,0
2017-02-26T20:17:10.026Z,0
2017-02-26T20:18:18.936Z,0
2017-02-26T20:19:27.844Z,0
2017-02-26T20:20:36.737Z,0
2017-02-26T20:21:45.637Z,0
2017-02-26T20:22:54.537Z,0
2017-02-26T20:24:03.467Z,0
2017-02-26T20:25:12.362Z,0
2017-02-26T20:26:21.251Z,0
2017-02-26T20:27:30.202Z,0
2017-02-26T20:28:39.329Z,0
2017-02-26T20:29:48.458Z,0
2017-02-26T20:30:57.464Z,0
2017-02-26T20:32:06.369Z,0
2017-02-26T20:33:15.434Z,0
2017-02-26T20:34:24.364Z,0
2017-02-26T20:35:33.401Z,0
2017-02-26T20:36:43.394Z,0
2017-02-26T20:37:52.693Z,0
2017-02-26T20:39:05.849Z,0
2017-02-26T20:40:17.502Z,0
2017-02-26T20:41:27.353Z,0
2017-02-26T20:42:36.296Z,0
2017-02-26T20:43:46.196Z,0
2017-02-26T20:44:55.297Z,0
2017-02-26T20:46:04.251Z,0
2017-02-26T20:47:13.179Z,0
2017-02-26T20:48:22.117Z,0
2017-02-26T20:49:31.484Z,0
2017-02-26T20:50:40.374Z,0
2017-02-26T20:51:49.274Z,0
2017-02-26T20:52:58.206Z,0
2017-02-26T20:54:07.153Z,0
2017-02-26T20:55:16.815Z,0
2017-02-26T20:56:25.914Z,0
2017-02-26T20:57:34.826Z,0
2017-02-26T20:58:44.677Z,0
2017-02-26T20:59:53.667Z,0
2017-02-26T21:01:02.546Z,0
2017-02-26T21:02:11.449Z,0
2017-02-26T21:03:20.342Z,0
2017-02-26T21:04:29.228Z,0
2017-02-26T21:05:38.291Z,0
2017-02-26T21:06:47.932Z,0
2017-02-26T21:07:56.890Z,0
2017-02-26T21:09:05.800Z,0
2017-02-26T21:10:14.747Z,0
2017-02-26T21:11:23.658Z,0
2017-02-26T21:12:32.698Z,0
2017-02-26T21:13:41.912Z,0
2017-02-26T21:14:50.813Z,0
2017-02-26T21:15:59.707Z,0
2017-02-26T21:17:08.649Z,0
2017-02-26T21:18:18.401Z,0
2017-02-26T21:19:27.338Z,0
2017-02-26T21:20:36.694Z,0
2017-02-26T21:21:45.634Z,0
2017-02-26T21:22:54.788Z,0
2017-02-26T21:24:03.812Z,0
2017-02-26T21:25:12.747Z,0
2017-02-26T21:26:22.073Z,0
2017-02-26T21:27:31.801Z,0
2017-02-26T21:28:40.779Z,0
2017-02-26T21:29:49.713Z,0
2017-02-26T21:30:58.656Z,0
2017-02-26T21:32:07.646Z,0
2017-02-26T21:33:17.930Z,0
2017-02-26T21:34:26.848Z,0
2017-02-26T21:35:36.013Z,0
2017-02-26T21:36:45.247Z,0
2017-02-26T21:37:54.194Z,0
2017-02-26T21:39:03.094Z,0
2017-02-26T21:40:12.011Z,0
2017-02-26T21:41:20.924Z,0
2017-02-26T21:42:30.459Z,0
2017-02-26T21:43:39.347Z,0
2017-02-26T21:44:50.462Z,0
2017-02-26T21:45:59.370Z,0
2017-02-26T21:47:08.262Z,0
2017-02-26T21:48:17.242Z,0
2017-02-26T21:49:26.164Z,0
2017-02-26T21:50:35.084Z,0
2017-02-26T21:51:43.995Z,0
2017-02-26T21:52:52.934Z,0
2017-02-26T21:54:01.835Z,0
2017-02-26T21:55:10.793Z,0
2017-02-26T21:56:19.690Z,0
2017-02-26T21:57:28.582Z,0
2017-02-26T21:58:37.484Z,0
2017-02-26T21:59:46.369Z,0
2017-02-26T22:00:55.324Z,0
2017-02-26T22:02:04.315Z,0
2017-02-26T22:03:14.352Z,0
2017-02-26T22:04:23.358Z,0
2017-02-26T22:05:32.637Z,0
2017-02-26T22:06:41.529Z,0
2017-02-26T22:07:50.416Z,0
2017-02-26T22:08:59.320Z,0
2017-02-26T22:10:08.658Z,0
2017-02-26T22:11:17.545Z,0
2017-02-26T22:12:26.647Z,0
2017-02-26T22:13:35.701Z,0
2017-02-26T22:14:44.641Z,0
2017-02-26T22:15:53.537Z,0
2017-02-26T22:17:02.828Z,0
2017-02-26T22:18:11.747Z,0
2017-02-26T22:19:20.630Z,0
2017-02-26T22:20:29.543Z,0
2017-02-26T22:21:38.437Z,0
2017-02-26T22:22:47.347Z,0
2017-02-26T22:23:56.633Z,0
2017-02-26T22:25:06.090Z,0
2017-02-26T22:26:14.988Z,0
2017-02-26T22:27:26.448Z,0
2017-02-26T22:28:35.749Z,0
2017-02-26T22:29:45.643Z,0
2017-02-26T22:30:54.606Z,0
2017-02-26T22:32:04.507Z,0
2017-02-26T22:33:14.249Z,0
2017-02-26T22:34:24.031Z,0
2017-02-26T22:35:33.013Z,0
2017-02-26T22:36:42.166Z,0
2017-02-26T22:37:51.068Z,0
2017-02-26T22:39:00.000Z,0
2017-02-26T22:40:08.943Z,0
2017-02-26T22:41:17.921Z,0
2017-02-26T22:42:26.806Z,0
2017-02-26T22:43:35.705Z,0
2017-02-26T22:44:44.601Z,0
2017-02-26T22:45:53.519Z,0
2017-02-26T22:47:02.428Z,0
2017-02-26T22:48:11.325Z,0
2017-02-26T22:49:20.222Z,0
2017-02-26T22:50:29.112Z,0
2017-02-26T22:51:38.020Z,0
2017-02-26T22:52:46.933Z,0
2017-02-26T22:53:55.827Z,0
2017-02-26T22:55:04.723Z,0
2017-02-26T22:56:13.614Z,0
2017-02-26T22:57:22.510Z,0
2017-02-26T22:58:31.410Z,0
2017-02-26T22:59:40.305Z,0
2017-02-26T23:00:49.192Z,0
2017-02-26T23:01:58.081Z,0
2017-02-26T23:03:06.973Z,0
2017-02-26T23:04:15.867Z,0
2017-02-26T23:05:24.761Z,0
2017-02-26T23:06:33.662Z,0
2017-02-26T23:07:42.576Z,0
2017-02-26T23:08:51.472Z,0
2017-02-26T23:10:00.399Z,0
2017-02-26T23:11:09.303Z,0
2017-02-26T23:12:18.600Z,0
2017-02-26T23:13:27.513Z,0
2017-02-26T23:14:36.397Z,0
2017-02-26T23:15:45.295Z,0
2017-02-26T23:16:54.179Z,0
2017-02-26T23:18:03.068Z,0
2017-02-26T23:19:11.964Z,0
2017-02-26T23:20:20.848Z,0
2017-02-26T23:21:29.735Z,0
2017-02-26T23:22:38.634Z,0
2017-02-26T23:23:47.521Z,0
2017-02-26T23:24:56.423Z,0
2017-02-26T23:26:05.335Z,0
2017-02-26T23:27:14.225Z,0
2017-02-26T23:28:23.106Z,0
2017-02-26T23:29:32.000Z,0
2017-02-26T23:30:40.894Z,0
2017-02-26T23:31:49.806Z,0
2017-02-26T23:32:58.705Z,0
2017-02-26T23:34:07.628Z,0
2017-02-26T23:35:16.529Z,0
2017-02-26T23:36:25.418Z,0
2017-02-26T23:37:34.311Z,0
2017-02-26T23:38:43.198Z,0
2017-02-26T23:39:52.114Z,0
2017-02-26T23:41:01.024Z,0
2017-02-26T23:42:09.906Z,0
2017-02-26T23:43:18.816Z,0
2017-02-26T23:44:27.726Z,0
2017-02-26T23:45:36.623Z,0
2017-02-26T23:46:45.523Z,0
2017-02-26T23:47:54.407Z,0
2017-02-26T23:49:03.294Z,0
2017-02-26T23:50:12.186Z,0
2017-02-26T23:51:21.100Z,0
2017-02-26T23:52:29.988Z,0
2017-02-26T23:53:38.952Z,0
2017-02-26T23:54:47.961Z,0
2017-02-26T23:55:56.842Z,0
2017-02-26T23:57:05.737Z,0
2017-02-26T23:58:14.861Z,0
2017-02-26T23:59:24.215Z,0
